Time;durP1;ratioP1;P1;durP2;ratioP2;P2;SDS_P1;SDS_P2;PMS_P1;PMS_P2;Temp;Humidity;BMP_temperature;BMP_pressure;BME280_temperature;BME280_humidity;BME280_pressure;Samples;Min_cycle;Max_cycle;Signal;HPM_P1;HPM_P2
2022/07/29 00:01:29;;;;;;;2.70;1.23;;;;;;;18.47;63.06;99822.69;5030201;28;20493;-61
2022/07/29 00:03:54;;;;;;;1.75;1.58;;;;;;;18.35;63.77;99830.38;5043929;28;20394;-61
2022/07/29 00:06:20;;;;;;;3.90;1.42;;;;;;;18.22;64.21;99832.81;5030480;28;20461;-64
2022/07/29 00:08:46;;;;;;;5.32;1.73;;;;;;;18.16;64.29;99831.63;5030152;28;20030;-61
2022/07/29 00:11:12;;;;;;;1.95;1.20;;;;;;;18.16;64.44;99838.88;5036158;28;20480;-61
2022/07/29 00:13:37;;;;;;;3.05;1.10;;;;;;;18.15;64.12;99831.78;5051170;28;20052;-61
2022/07/29 00:16:03;;;;;;;3.25;1.20;;;;;;;18.14;64.21;99833.66;5033896;28;20029;-61
2022/07/29 00:18:29;;;;;;;2.95;1.33;;;;;;;18.11;64.17;99834.00;5033296;28;20403;-61
2022/07/29 00:20:54;;;;;;;2.53;1.20;;;;;;;18.02;64.34;99837.75;5034303;28;20494;-60
2022/07/29 00:23:20;;;;;;;4.85;1.35;;;;;;;17.90;64.73;99842.63;5034197;28;20096;-61
2022/07/29 00:25:45;;;;;;;4.07;1.40;;;;;;;17.65;65.09;99816.44;5053156;28;20040;-62
2022/07/29 00:28:11;;;;;;;2.03;1.10;;;;;;;17.56;65.48;99830.16;5053605;28;20451;-63
2022/07/29 00:30:36;;;;;;;1.90;1.10;;;;;;;17.54;65.85;99837.59;5053233;28;20109;-62
2022/07/29 00:33:02;;;;;;;2.55;1.40;;;;;;;17.50;65.66;99842.50;5052338;28;20064;-62
2022/07/29 00:35:46;;;;;;;2.63;1.45;;;;;;;17.40;66.01;99841.81;5033745;28;20112;-62
2022/07/29 00:38:13;;;;;;;4.22;1.25;;;;;;;17.30;66.13;99845.53;5033257;28;20794;-61
2022/07/29 00:40:40;;;;;;;2.55;1.20;;;;;;;17.25;66.39;99844.34;5033133;28;20064;-61
2022/07/29 00:43:05;;;;;;;5.20;1.45;;;;;;;17.15;66.39;99847.22;5033202;28;20117;-61
2022/07/29 00:45:31;;;;;;;3.03;1.35;;;;;;;16.97;66.40;99836.47;5053127;28;20116;-62
2022/07/29 00:47:56;;;;;;;4.80;1.20;;;;;;;17.01;66.68;99849.53;5052716;28;20033;-61
2022/07/29 00:50:22;;;;;;;3.67;1.58;;;;;;;16.95;66.88;99855.56;5053019;28;20033;-64
2022/07/29 00:52:48;;;;;;;3.17;1.23;;;;;;;16.86;66.71;99861.94;5053467;28;20094;-60
2022/07/29 00:55:15;;;;;;;3.60;1.38;;;;;;;16.84;66.56;99874.78;5033891;28;20033;-60
2022/07/29 00:57:43;;;;;;;3.13;1.38;;;;;;;16.78;66.68;99873.63;5051554;28;20033;-61
2022/07/29 01:00:14;;;;;;;2.00;1.50;;;;;;;16.79;66.83;99883.41;5051558;28;20040;-61
2022/07/29 01:02:40;;;;;;;2.40;1.27;;;;;;;16.69;67.42;99872.72;5052650;28;20052;-61
2022/07/29 01:05:07;;;;;;;2.55;1.45;;;;;;;16.64;67.08;99875.91;5035226;28;20058;-62
2022/07/29 01:07:35;;;;;;;3.72;1.27;;;;;;;16.61;66.96;99880.78;5032420;28;20046;-61
2022/07/29 01:10:04;;;;;;;1.98;1.17;;;;;;;16.59;67.12;99880.09;5032625;28;20045;-60
2022/07/29 01:12:33;;;;;;;3.63;1.35;;;;;;;16.50;67.17;99877.38;5032652;28;20064;-62
2022/07/29 01:15:00;;;;;;;1.60;1.20;;;;;;;16.30;66.96;99852.44;5047985;28;20459;-62
2022/07/29 01:17:30;;;;;;;2.97;1.35;;;;;;;16.47;66.88;99888.50;5052518;28;20032;-61
2022/07/29 01:19:59;;;;;;;2.17;1.50;;;;;;;16.27;67.12;99854.63;5034742;28;20040;-62
2022/07/29 01:22:36;;;;;;;5.65;1.40;;;;;;;16.44;67.10;99882.56;5032214;28;20041;-63
2022/07/29 01:25:20;;;;;;;4.43;1.30;;;;;;;16.32;67.19;99882.00;5048896;28;20029;-61
2022/07/29 01:28:15;;;;;;;2.65;1.55;;;;;;;16.33;67.54;99864.78;5052215;28;20534;-61
2022/07/29 01:30:43;;;;;;;1.80;1.30;;;;;;;16.23;67.44;99877.56;5051012;28;20036;-61
2022/07/29 01:33:48;;;;;;;2.72;1.48;;;;;;;16.24;67.57;99879.25;5051580;28;20400;-60
2022/07/29 01:36:01;;;;;;;4.88;1.80;;;;;;;16.20;67.40;99884.97;5031935;28;20037;-61
2022/07/29 01:38:28;;;;;;;2.08;1.27;;;;;;;16.11;67.58;99875.09;5031986;28;20029;-61
2022/07/29 01:41:00;;;;;;;2.78;1.25;;;;;;;16.16;68.07;99885.44;5037295;28;20082;-60
2022/07/29 01:43:53;;;;;;;3.47;1.77;;;;;;;16.20;68.47;99879.56;5049117;28;20359;-61
2022/07/29 01:46:26;;;;;;;1.63;1.27;;;;;;;16.08;68.23;99880.84;5031653;28;20111;-60
2022/07/29 01:49:01;;;;;;;4.10;1.30;;;;;;;16.11;68.79;99888.63;5032148;28;20030;-60
2022/07/29 01:51:35;;;;;;;2.20;1.27;;;;;;;16.12;68.71;99890.31;5040999;28;20025;-62
2022/07/29 01:54:08;;;;;;;3.95;1.50;;;;;;;16.10;68.91;99891.50;5044101;28;20262;-60
2022/07/29 01:56:36;;;;;;;2.53;1.27;;;;;;;16.04;68.92;99885.72;5031571;28;20032;-60
2022/07/29 01:59:04;;;;;;;1.67;1.20;;;;;;;16.03;69.14;99884.00;5039722;28;20040;-60
2022/07/29 02:01:32;;;;;;;1.98;1.00;;;;;;;16.02;69.41;99878.78;5051769;28;20440;-62
2022/07/29 02:04:01;;;;;;;2.97;1.58;;;;;;;16.04;69.27;99885.72;5039549;28;20057;-61
2022/07/29 02:06:29;;;;;;;2.88;1.20;;;;;;;16.04;69.22;99876.75;5031794;28;20128;-62
2022/07/29 02:08:57;;;;;;;4.38;1.48;;;;;;;16.05;69.46;99887.41;5038217;28;20117;-61
2022/07/29 02:11:23;;;;;;;5.60;1.40;;;;;;;16.07;69.22;99880.00;5051816;28;20043;-61
2022/07/29 02:13:52;;;;;;;1.95;1.23;;;;;;;16.10;69.21;99886.91;5050072;28;20039;-61
2022/07/29 02:16:22;;;;;;;4.82;1.20;;;;;;;16.01;69.17;99866.28;5039719;28;20888;-61
2022/07/29 02:18:50;;;;;;;2.78;1.20;;;;;;;16.14;69.13;99885.59;5036064;28;20945;-61
2022/07/29 02:21:21;;;;;;;2.53;1.60;;;;;;;16.20;69.04;99884.97;5051465;28;20479;-61
2022/07/29 02:23:48;;;;;;;3.38;1.23;;;;;;;16.18;69.18;99887.00;5051098;28;20474;-62
2022/07/29 02:26:16;;;;;;;2.20;1.63;;;;;;;16.18;69.12;99884.28;5042277;28;20080;-61
2022/07/29 02:28:43;;;;;;;1.85;1.50;;;;;;;16.23;69.14;99893.78;5033384;28;20090;-60
2022/07/29 02:31:10;;;;;;;5.57;1.60;;;;;;;16.32;68.68;99895.50;5051409;28;20033;-60
2022/07/29 02:33:38;;;;;;;3.60;1.13;;;;;;;16.40;68.52;99895.56;5050634;28;20503;-62
2022/07/29 02:36:04;;;;;;;5.70;1.98;;;;;;;16.44;68.06;99891.53;5050813;28;20401;-60
2022/07/29 02:41:23;;;;;;;2.97;2.03;;;;;;;16.57;67.72;99890.22;5051161;28;20032;-62
2022/07/29 02:43:53;;;;;;;4.10;1.50;;;;;;;16.60;67.86;99898.00;5051023;28;20037;-60
2022/07/29 02:46:26;;;;;;;1.95;1.35;;;;;;;16.62;68.11;99901.41;5051048;28;20037;-61
2022/07/29 02:49:19;;;;;;;5.30;1.73;;;;;;;16.64;68.43;99902.94;5049645;28;20044;-61
2022/07/29 02:51:54;;;;;;;7.55;1.92;;;;;;;16.59;68.84;99877.41;5049652;28;20521;-61
2022/07/29 02:54:28;;;;;;;6.43;1.92;;;;;;;16.77;68.78;99901.66;5050831;28;20249;-60
2022/07/29 02:56:56;;;;;;;6.18;2.08;;;;;;;16.72;68.74;99890.47;5050503;28;20033;-61
2022/07/29 02:59:25;;;;;;;6.30;1.73;;;;;;;16.78;68.93;99896.06;5036892;28;20107;-61
2022/07/29 03:01:53;;;;;;;1.95;1.65;;;;;;;16.77;68.79;99890.84;5030839;28;20046;-60
2022/07/29 03:04:20;;;;;;;6.80;1.58;;;;;;;16.82;68.63;99901.16;5029180;28;20079;-60
2022/07/29 03:06:46;;;;;;;3.90;1.50;;;;;;;16.85;68.38;99898.13;5029777;28;20034;-61
2022/07/29 03:09:13;;;;;;;4.40;1.80;;;;;;;16.90;67.92;99902.03;5042333;28;20392;-61
2022/07/29 03:11:41;;;;;;;6.65;2.05;;;;;;;16.82;67.90;99868.69;5036894;28;20091;-61
2022/07/29 03:14:07;;;;;;;5.18;1.92;;;;;;;16.99;67.87;99885.84;5030871;28;20032;-60
2022/07/29 03:16:36;;;;;;;5.75;1.70;;;;;;;17.08;67.39;99893.00;5030461;28;20025;-61
2022/07/29 03:19:03;;;;;;;6.75;1.98;;;;;;;17.01;67.21;99871.16;5039574;28;20017;-62
2022/07/29 03:21:29;;;;;;;7.07;1.67;;;;;;;17.11;66.39;99865.63;5050831;28;20033;-59
2022/07/29 03:23:54;;;;;;;3.85;1.65;;;;;;;17.16;66.25;99854.31;5050377;28;20441;-63
2022/07/29 03:26:20;;;;;;;5.07;1.60;;;;;;;17.39;65.79;99888.84;5050575;28;20029;-61
2022/07/29 03:28:46;;;;;;;3.60;1.90;;;;;;;17.49;66.10;99884.09;5042225;28;20021;-61
2022/07/29 03:31:11;;;;;;;3.95;1.23;;;;;;;17.50;64.75;99862.31;5030478;28;20037;-61
2022/07/29 03:33:36;;;;;;;3.50;1.50;;;;;;;17.85;64.16;99894.63;5039248;28;20044;-61
2022/07/29 03:36:02;;;;;;;4.68;1.17;;;;;;;18.27;62.64;99889.16;5049134;28;20500;-62
2022/07/29 03:38:30;;;;;;;2.60;1.00;;;;;;;18.94;60.45;99894.22;5031026;28;20119;-60
2022/07/29 03:41:07;;;;;;;4.03;1.38;;;;;;;19.90;57.55;99881.38;5030367;28;20385;-59
2022/07/29 03:43:37;;;;;;;5.97;1.35;;;;;;;20.76;54.64;99886.41;5030690;28;20029;-64
2022/07/29 03:46:06;;;;;;;3.65;1.08;;;;;;;21.65;52.22;99876.34;5032308;28;20386;-62
2022/07/29 03:48:35;;;;;;;2.47;1.20;;;;;;;22.60;49.27;99879.75;5054482;28;20025;-59
2022/07/29 03:51:00;;;;;;;3.78;1.02;;;;;;;23.47;46.85;99879.28;5054318;28;20032;-60
2022/07/29 03:53:26;;;;;;;3.20;1.02;;;;;;;24.45;44.12;99882.41;5040735;28;20320;-60
2022/07/29 03:55:58;;;;;;;1.92;1.13;;;;;;;25.50;41.88;99883.25;5041623;28;20473;-60
2022/07/29 03:58:26;;;;;;;2.42;1.30;;;;;;;26.30;39.19;99856.25;5033724;28;20367;-59
2022/07/29 04:00:53;;;;;;;1.48;1.00;;;;;;;27.39;37.22;99879.44;5034115;28;20532;-60
2022/07/29 04:03:19;;;;;;;2.85;0.80;;;;;;;28.42;34.84;99877.56;5046019;28;20036;-59
2022/07/29 04:05:45;;;;;;;2.20;0.90;;;;;;;29.20;33.10;99868.97;5052904;28;20055;-60
2022/07/29 04:08:10;;;;;;;4.60;0.93;;;;;;;30.16;31.71;99878.38;5035765;28;20128;-60
2022/07/29 04:10:37;;;;;;;2.30;0.82;;;;;;;30.81;30.38;99885.31;5043674;28;20029;-60
2022/07/29 04:13:03;;;;;;;4.43;1.00;;;;;;;31.48;29.29;99877.78;5037175;28;20033;-60
2022/07/29 04:15:28;;;;;;;3.63;1.10;;;;;;;32.24;27.72;99889.78;5032990;28;20040;-60
2022/07/29 04:17:55;;;;;;;4.88;1.00;;;;;;;32.52;27.34;99886.91;5033762;28;20041;-59
2022/07/29 04:20:20;;;;;;;1.92;0.90;;;;;;;33.06;26.19;99885.78;5033406;28;20037;-59
2022/07/29 04:22:46;;;;;;;2.08;1.10;;;;;;;33.22;26.22;99892.19;5033562;28;20043;-60
2022/07/29 04:25:11;;;;;;;2.58;1.10;;;;;;;33.31;25.53;99873.91;5039659;28;20411;-60
2022/07/29 04:27:59;;;;;;;3.05;1.08;;;;;;;34.03;24.66;99891.75;5041421;28;20037;-60
2022/07/29 04:30:22;;;;;;;3.80;1.10;;;;;;;34.98;23.67;99888.41;5033200;28;20033;-61
2022/07/29 04:32:48;;;;;;;2.03;0.95;;;;;;;35.48;22.67;99888.44;5033210;28;20041;-60
2022/07/29 04:35:13;;;;;;;3.25;1.20;;;;;;;36.18;22.02;99895.69;5037670;28;20059;-61
2022/07/29 04:37:38;;;;;;;3.15;0.93;;;;;;;36.91;20.85;99886.50;5041267;28;20108;-64
2022/07/29 04:40:05;;;;;;;2.47;1.10;;;;;;;37.40;20.09;99901.16;5045683;28;20044;-61
2022/07/29 04:42:30;;;;;;;3.15;1.08;;;;;;;37.75;20.05;99904.56;5053631;28;20025;-64
2022/07/29 04:44:56;;;;;;;2.10;1.13;;;;;;;37.99;19.48;99894.38;5049962;28;20033;-59
2022/07/29 04:47:21;;;;;;;1.80;0.93;;;;;;;38.47;19.22;99924.81;5040793;28;20089;-61
2022/07/29 04:49:46;;;;;;;1.60;0.90;;;;;;;38.87;18.03;99917.88;5052744;28;20377;-59
2022/07/29 04:52:12;;;;;;;3.85;0.90;;;;;;;39.15;17.95;99904.66;5052625;28;20453;-60
2022/07/29 04:54:37;;;;;;;2.47;1.20;;;;;;;39.70;17.24;99899.22;5052561;28;20033;-61
2022/07/29 04:57:03;;;;;;;1.67;1.00;;;;;;;39.96;17.03;99907.84;5037597;28;20036;-62
2022/07/29 04:59:28;;;;;;;4.25;1.08;;;;;;;40.36;16.83;99904.25;5052739;28;20595;-62
2022/07/29 05:01:54;;;;;;;1.02;0.93;;;;;;;40.67;16.62;99906.19;5051162;28;20388;-61
2022/07/29 05:04:19;;;;;;;3.33;1.20;;;;;;;41.17;15.87;99910.63;5052707;28;20056;-61
2022/07/29 05:06:45;;;;;;;1.35;1.10;;;;;;;41.56;15.43;99909.97;5052411;28;20087;-62
2022/07/29 05:09:10;;;;;;;2.25;1.02;;;;;;;41.75;15.47;99904.03;5052736;28;20059;-61
2022/07/29 05:11:36;;;;;;;3.88;1.10;;;;;;;42.04;15.54;99900.50;5047443;28;20036;-61
2022/07/29 05:14:01;;;;;;;3.85;1.42;;;;;;;42.48;14.50;99901.53;5043350;28;20055;-61
2022/07/29 05:16:27;;;;;;;2.10;1.00;;;;;;;42.92;14.29;99906.94;5035902;28;20037;-62
2022/07/29 05:18:52;;;;;;;3.05;0.98;;;;;;;43.03;14.31;99906.19;5033269;28;20079;-62
2022/07/29 05:21:18;;;;;;;2.50;1.20;;;;;;;42.06;14.82;99910.59;5032151;28;20421;-61
2022/07/29 05:23:43;;;;;;;1.50;1.10;;;;;;;42.27;14.77;99913.50;5032640;28;20037;-61
2022/07/29 05:26:09;;;;;;;1.45;1.17;;;;;;;42.41;14.59;99894.41;5031436;28;20029;-62
2022/07/29 05:28:34;;;;;;;1.63;1.00;;;;;;;42.53;14.25;99910.59;5042302;28;20542;-62
2022/07/29 05:31:00;;;;;;;1.75;1.10;;;;;;;42.70;14.27;99906.88;5052785;28;20041;-62
2022/07/29 05:33:25;;;;;;;1.73;1.02;;;;;;;43.17;13.98;99902.28;5052266;28;20421;-61
2022/07/29 05:35:51;;;;;;;2.90;1.20;;;;;;;43.56;13.86;99910.59;5048051;28;20037;-62
2022/07/29 05:38:16;;;;;;;1.45;1.00;;;;;;;44.07;13.34;99882.19;5042838;28;20034;-62
2022/07/29 05:40:42;;;;;;;1.77;1.10;;;;;;;44.57;13.04;99900.06;5051676;28;20059;-62
2022/07/29 05:43:07;;;;;;;2.55;1.50;;;;;;;44.19;12.67;99887.06;5052780;28;20057;-61
2022/07/29 05:45:33;;;;;;;2.00;1.10;;;;;;;44.09;12.79;99902.41;5045260;28;20049;-61
2022/07/29 05:47:58;;;;;;;2.20;1.30;;;;;;;43.99;13.05;99900.88;5035271;28;20817;-63
2022/07/29 05:50:24;;;;;;;1.80;1.05;;;;;;;44.10;12.95;99898.41;5052466;28;20040;-62
2022/07/29 05:52:50;;;;;;;2.13;1.02;;;;;;;44.57;12.31;99899.22;5052189;28;20090;-62
2022/07/29 05:55:15;;;;;;;3.75;1.30;;;;;;;45.31;12.13;99901.91;5050019;28;20203;-62
2022/07/29 05:57:43;;;;;;;2.72;1.40;;;;;;;46.27;11.31;99903.34;5032017;28;20164;-63
2022/07/29 06:00:09;;;;;;;2.78;1.23;;;;;;;47.08;10.20;99890.72;5047724;28;20079;-62
2022/07/29 06:02:34;;;;;;;2.53;1.40;;;;;;;47.80;9.79;99897.06;5031659;28;20041;-62
2022/07/29 06:05:00;;;;;;;1.83;1.17;;;;;;;48.50;9.55;99897.09;5031270;28;20049;-61
2022/07/29 06:07:26;;;;;;;1.33;0.95;;;;;;;48.85;9.02;99895.19;5031363;28;20052;-61
2022/07/29 06:09:51;;;;;;;1.88;1.30;;;;;;;49.20;9.03;99896.06;5032382;28;20061;-63
2022/07/29 06:12:16;;;;;;;1.77;1.17;;;;;;;48.77;9.18;99896.28;5031866;28;20034;-61
2022/07/29 06:14:42;;;;;;;1.95;1.25;;;;;;;47.55;9.74;99896.56;5031459;28;20061;-62
2022/07/29 06:17:08;;;;;;;1.25;1.15;;;;;;;47.45;10.17;99897.97;5031936;28;20075;-61
2022/07/29 06:19:36;;;;;;;3.38;1.52;;;;;;;48.71;8.78;99905.09;5045957;28;20033;-60
2022/07/29 06:22:01;;;;;;;1.80;1.02;;;;;;;48.28;9.00;99893.06;5051296;28;20496;-61
2022/07/29 06:24:27;;;;;;;1.33;1.00;;;;;;;46.24;9.96;99884.28;5031820;28;20030;-62
2022/07/29 06:26:52;;;;;;;2.72;1.10;;;;;;;46.61;10.38;99883.16;5031276;28;20112;-62
2022/07/29 06:29:18;;;;;;;2.58;1.23;;;;;;;47.39;9.85;99890.97;5042263;28;20025;-62
2022/07/29 06:31:43;;;;;;;1.02;1.00;;;;;;;48.68;8.74;99877.47;5050824;28;20029;-64
2022/07/29 06:34:09;;;;;;;1.08;1.00;;;;;;;50.12;7.96;99883.25;5049945;28;20025;-64
2022/07/29 06:36:38;;;;;;;3.15;1.02;;;;;;;51.23;7.07;99898.66;5044638;28;20029;-62
2022/07/29 06:39:07;;;;;;;1.25;1.10;;;;;;;51.67;7.08;99893.94;5038213;28;20481;-64
2022/07/29 06:41:33;;;;;;;1.58;1.10;;;;;;;51.83;6.82;99889.88;5044311;28;20195;-62
2022/07/29 06:43:59;;;;;;;1.83;1.23;;;;;;;52.16;6.92;99878.50;5032224;28;20033;-63
2022/07/29 06:46:25;;;;;;;2.58;1.40;;;;;;;52.18;6.71;99876.06;5031406;28;20056;-62
2022/07/29 06:48:51;;;;;;;2.55;1.73;;;;;;;52.33;6.62;99877.69;5037013;28;20025;-62
2022/07/29 06:51:17;;;;;;;2.67;1.40;;;;;;;52.87;5.93;99865.34;5050910;28;20033;-63
2022/07/29 06:53:43;;;;;;;1.67;1.45;;;;;;;53.19;5.94;99867.25;5042741;28;20464;-63
2022/07/29 06:56:09;;;;;;;1.50;1.40;;;;;;;53.10;5.70;99869.75;5033317;28;20116;-62
2022/07/29 06:58:35;;;;;;;1.75;1.65;;;;;;;52.61;6.14;99870.28;5031106;28;20470;-62
2022/07/29 07:01:03;;;;;;;2.17;1.70;;;;;;;53.21;5.58;99879.09;5030245;28;20025;-63
2022/07/29 07:03:29;;;;;;;2.45;1.35;;;;;;;53.30;5.08;99858.63;5030690;28;20477;-66
2022/07/29 07:05:55;;;;;;;1.85;1.65;;;;;;;53.29;5.49;99870.47;5040788;28;20085;-65
2022/07/29 07:08:21;;;;;;;1.95;1.50;;;;;;;52.09;5.90;99880.16;5031249;28;20103;-63
2022/07/29 07:10:48;;;;;;;2.60;2.10;;;;;;;52.20;5.90;99880.09;5030908;28;20033;-64
2022/07/29 07:13:14;;;;;;;1.75;1.65;;;;;;;52.48;5.63;99863.38;5030744;28;20040;-71
2022/07/29 07:15:40;;;;;;;1.65;1.55;;;;;;;53.22;4.96;99879.91;5040556;28;20029;-64
2022/07/29 07:18:07;;;;;;;4.97;1.90;;;;;;;54.02;4.96;99873.69;5048755;28;20033;-66
2022/07/29 07:20:35;;;;;;;1.98;1.77;;;;;;;54.83;4.10;99892.56;5051451;28;20039;-66
2022/07/29 07:23:01;;;;;;;2.00;1.90;;;;;;;55.69;4.03;99884.06;5055114;28;20038;-64
2022/07/29 07:25:27;;;;;;;4.00;3.67;;;;;;;55.70;3.73;99879.16;5052748;28;20037;-68
2022/07/29 07:27:52;;;;;;;7.15;6.45;;;;;;;55.32;3.67;99883.75;5034950;28;20040;-64
2022/07/29 07:30:18;;;;;;;5.78;5.15;;;;;;;54.02;4.46;99883.06;5051236;28;20029;-67
2022/07/29 07:32:43;;;;;;;6.60;4.80;;;;;;;51.34;6.13;99875.91;5054405;28;20029;-67
2022/07/29 07:35:09;;;;;;;4.80;2.80;;;;;;;48.18;7.97;99879.50;5054043;28;20086;-67
2022/07/29 07:37:35;;;;;;;1.65;1.40;;;;;;;46.95;8.88;99869.41;5053703;28;20087;-62
2022/07/29 07:40:01;;;;;;;3.38;1.70;;;;;;;46.35;9.22;99876.06;5054453;28;20029;-62
2022/07/29 07:42:30;;;;;;;2.92;2.72;;;;;;;47.68;8.56;99869.72;5054117;28;20029;-63
2022/07/29 07:44:55;;;;;;;2.72;1.30;;;;;;;47.43;8.32;99864.34;5054531;28;20035;-64
2022/07/29 07:47:21;;;;;;;2.72;1.60;;;;;;;47.53;8.24;99857.25;5039732;28;20130;-62
2022/07/29 07:49:47;;;;;;;2.28;1.13;;;;;;;46.41;8.98;99868.91;5034413;28;20052;-65
2022/07/29 07:52:14;;;;;;;2.28;1.80;;;;;;;44.61;10.34;99876.75;5053203;28;20430;-66
2022/07/29 07:54:39;;;;;;;3.42;1.70;;;;;;;45.26;8.86;99859.78;5034611;28;20588;-66
2022/07/29 07:57:05;;;;;;;2.00;1.02;;;;;;;46.07;8.95;99869.31;5039042;28;20108;-66
2022/07/29 07:59:30;;;;;;;2.85;1.10;;;;;;;47.31;8.45;99878.69;5052700;28;20465;-64
2022/07/29 08:01:56;;;;;;;2.47;0.98;;;;;;;45.94;9.25;99868.56;5051404;28;20025;-63
2022/07/29 08:04:22;;;;;;;1.63;1.00;;;;;;;43.28;11.56;99883.78;5053540;28;20124;-62
2022/07/29 08:06:49;;;;;;;2.28;1.10;;;;;;;40.61;13.26;99879.44;5049202;28;20034;-66
2022/07/29 08:09:15;;;;;;;1.58;1.10;;;;;;;38.53;15.01;99886.41;5033673;28;20039;-66
2022/07/29 08:11:40;;;;;;;3.13;0.90;;;;;;;38.74;14.40;99881.19;5033643;28;20120;-64
2022/07/29 08:14:06;;;;;;;6.35;1.65;;;;;;;38.05;15.53;99862.41;5034090;28;20033;-64
2022/07/29 08:16:31;;;;;;;5.80;1.00;;;;;;;39.10;14.38;99867.59;5038939;28;20033;-63
2022/07/29 08:18:57;;;;;;;3.10;1.40;;;;;;;38.66;14.54;99879.16;5035536;28;20036;-62
2022/07/29 08:21:24;;;;;;;3.78;0.90;;;;;;;37.15;16.29;99878.06;5042593;28;20473;-64
2022/07/29 08:23:52;;;;;;;1.02;0.90;;;;;;;37.14;15.88;99878.41;5049276;28;20038;-64
2022/07/29 08:26:22;;;;;;;0.77;0.70;;;;;;;36.45;16.45;99883.13;5044139;28;20029;-66
2022/07/29 08:28:50;;;;;;;1.75;0.82;;;;;;;35.32;18.03;99877.41;5036590;28;20029;-63
2022/07/29 08:31:16;;;;;;;1.48;1.00;;;;;;;34.23;19.27;99890.88;5033064;28;20064;-68
2022/07/29 08:33:42;;;;;;;3.17;0.80;;;;;;;33.11;19.86;99880.22;5036249;28;20029;-67
2022/07/29 08:36:08;;;;;;;2.05;0.80;;;;;;;32.18;20.60;99890.81;5049038;28;20037;-60
2022/07/29 08:38:34;;;;;;;2.13;1.13;;;;;;;31.50;21.59;99886.66;5048284;28;20490;-63
2022/07/29 08:41:01;;;;;;;2.28;0.93;;;;;;;31.10;22.83;99890.63;5049765;28;20433;-61
2022/07/29 08:43:28;;;;;;;1.50;0.85;;;;;;;30.49;23.13;99873.84;5034398;28;20159;-60
2022/07/29 08:45:53;;;;;;;2.22;1.13;;;;;;;30.04;24.22;99874.84;5032977;28;20033;-60
2022/07/29 08:48:21;;;;;;;1.50;0.90;;;;;;;29.45;24.98;99873.31;5050663;28;20033;-62
2022/07/29 08:50:49;;;;;;;1.02;0.95;;;;;;;29.04;25.68;99887.97;5050024;28;20038;-62
2022/07/29 08:53:17;;;;;;;2.22;1.13;;;;;;;28.68;26.59;99894.63;5051681;28;20063;-61
2022/07/29 08:55:44;;;;;;;2.35;0.88;;;;;;;28.46;25.99;99882.34;5052411;28;20028;-60
2022/07/29 08:58:11;;;;;;;1.70;1.00;;;;;;;28.48;26.18;99880.19;5051752;28;20401;-60
2022/07/29 09:00:42;;;;;;;1.33;0.90;;;;;;;28.68;25.78;99878.91;5037707;28;20048;-61
2022/07/29 09:03:09;;;;;;;1.17;0.70;;;;;;;28.68;26.23;99878.91;5032743;28;20034;-61
2022/07/29 09:05:35;;;;;;;3.90;1.00;;;;;;;28.43;26.59;99876.47;5032204;28;20050;-60
2022/07/29 09:08:01;;;;;;;1.92;1.00;;;;;;;27.91;27.35;99878.81;5050937;28;20041;-61
2022/07/29 09:10:27;;;;;;;3.22;0.88;;;;;;;27.71;27.98;99881.91;5052438;28;20118;-62
2022/07/29 09:12:54;;;;;;;2.92;1.15;;;;;;;27.58;28.31;99887.63;5051426;28;20469;-60
2022/07/29 09:15:20;;;;;;;4.13;1.13;;;;;;;27.64;29.00;99881.19;5053158;28;20036;-59
2022/07/29 09:17:48;;;;;;;2.33;1.00;;;;;;;27.82;28.05;99887.66;5030156;28;20033;-60
2022/07/29 09:20:19;;;;;;;2.15;0.70;;;;;;;28.16;27.89;99890.72;5032535;28;20033;-59
2022/07/29 09:22:49;;;;;;;4.35;0.80;;;;;;;28.44;26.63;99878.13;5048566;28;20485;-59
2022/07/29 09:25:31;;;;;;;0.82;0.70;;;;;;;28.53;26.67;99884.13;5052574;28;20043;-62
2022/07/29 09:28:10;;;;;;;0.93;0.60;;;;;;;28.68;26.67;99886.38;5049740;28;20403;-59
2022/07/29 09:30:38;;;;;;;1.45;0.85;;;;;;;28.69;26.72;99880.59;5050720;28;20032;-61
2022/07/29 09:33:04;;;;;;;1.25;0.80;;;;;;;28.87;26.84;99884.31;5032609;28;20041;-62
2022/07/29 09:35:30;;;;;;;1.90;1.10;;;;;;;28.97;26.69;99894.69;5030758;28;20207;-61
2022/07/29 09:37:56;;;;;;;1.42;0.82;;;;;;;29.00;26.77;99881.28;5050133;28;20057;-60
2022/07/29 09:40:25;;;;;;;4.50;1.13;;;;;;;29.01;26.92;99891.22;5052856;28;20036;-61
2022/07/29 09:42:52;;;;;;;3.10;0.80;;;;;;;29.01;26.33;99895.88;5051814;28;20033;-60
2022/07/29 09:45:34;;;;;;;2.85;0.75;;;;;;;29.03;26.21;99883.53;5035238;28;20030;-60
2022/07/29 09:48:13;;;;;;;2.15;0.80;;;;;;;28.95;26.20;99894.97;5044015;28;20072;-60
2022/07/29 09:50:40;;;;;;;2.10;0.70;;;;;;;28.99;26.41;99889.78;5051259;28;20047;-59
2022/07/29 09:53:05;;;;;;;1.75;0.70;;;;;;;28.98;26.41;99894.47;5043712;28;20041;-60
2022/07/29 09:55:31;;;;;;;1.25;0.70;;;;;;;28.83;26.53;99874.84;5031632;28;20037;-61
2022/07/29 09:58:17;;;;;;;2.83;0.88;;;;;;;29.00;26.57;99906.09;5035019;28;20092;-61
2022/07/29 10:00:44;;;;;;;2.00;0.80;;;;;;;28.63;26.97;99890.69;5037640;28;20124;-62
2022/07/29 10:03:09;;;;;;;4.97;1.15;;;;;;;28.44;27.32;99889.16;5034091;28;20397;-61
2022/07/29 10:05:35;;;;;;;3.80;1.13;;;;;;;28.42;27.60;99889.38;5050571;28;20530;-59
2022/07/29 10:08:01;;;;;;;1.77;1.00;;;;;;;28.38;27.52;99863.41;5044990;28;20025;-60
2022/07/29 10:10:29;;;;;;;1.55;0.75;;;;;;;28.77;26.62;99899.53;5030319;28;20033;-59
2022/07/29 10:13:03;;;;;;;0.88;0.60;;;;;;;28.92;26.24;99901.78;5031451;28;20029;-58
2022/07/29 10:15:31;;;;;;;1.42;0.75;;;;;;;28.84;26.34;99893.06;5030954;28;20079;-59
2022/07/29 10:17:58;;;;;;;0.73;0.63;;;;;;;28.81;26.67;99888.88;5040845;28;20122;-59
2022/07/29 10:20:25;;;;;;;2.65;0.80;;;;;;;28.51;26.40;99889.84;5046064;28;20024;-60
2022/07/29 10:22:52;;;;;;;1.88;0.80;;;;;;;28.03;27.88;99889.03;5049755;28;20053;-63
2022/07/29 10:25:18;;;;;;;1.13;0.90;;;;;;;27.68;27.57;99876.91;5051135;28;20028;-61
2022/07/29 10:27:46;;;;;;;1.85;0.70;;;;;;;27.65;27.65;99885.63;5049245;28;20067;-58
2022/07/29 10:30:13;;;;;;;2.38;0.80;;;;;;;27.84;27.54;99883.63;5050804;28;20100;-63
2022/07/29 10:32:53;;;;;;;1.50;0.80;;;;;;;28.25;26.71;99892.03;5050304;28;20029;-60
2022/07/29 10:35:19;;;;;;;1.75;0.80;;;;;;;28.07;27.42;99879.22;5051428;28;20029;-60
2022/07/29 10:38:05;;;;;;;2.63;0.95;;;;;;;28.01;27.47;99897.50;5049659;28;20040;-62
2022/07/29 10:43:40;;;;;;;2.08;0.70;;;;;;;28.05;27.10;99882.19;5050478;28;20469;-62
2022/07/29 10:46:07;;;;;;;0.80;0.70;;;;;;;28.25;26.47;99885.72;5048803;28;20502;-60
2022/07/29 10:48:32;;;;;;;1.13;0.68;;;;;;;28.57;25.42;99877.03;5043403;28;20096;-62
2022/07/29 10:51:04;;;;;;;0.73;0.50;;;;;;;28.69;25.28;99894.38;5030224;28;20428;-60
2022/07/29 10:53:52;;;;;;;0.80;0.63;;;;;;;28.79;25.20;99888.28;5029937;28;20111;-58
2022/07/29 10:56:33;;;;;;;1.17;0.90;;;;;;;28.67;25.17;99874.50;5030855;28;20037;-61
2022/07/29 10:59:20;;;;;;;1.45;0.70;;;;;;;28.72;25.17;99887.53;5038356;28;20021;-63
2022/07/29 11:01:50;;;;;;;3.40;0.80;;;;;;;28.49;25.90;99881.00;5049464;28;20473;-60
2022/07/29 11:04:43;;;;;;;1.23;0.70;;;;;;;28.52;25.25;99886.03;5050628;28;20044;-61
2022/07/29 11:07:09;;;;;;;1.33;0.60;;;;;;;28.34;25.43;99887.00;5049634;28;20047;-61
2022/07/29 11:09:35;;;;;;;3.40;0.80;;;;;;;28.33;25.08;99883.41;5049756;28;20036;-61
2022/07/29 11:12:01;;;;;;;1.42;0.60;;;;;;;28.23;26.02;99877.69;5034659;28;20037;-58
2022/07/29 11:14:52;;;;;;;0.88;0.75;;;;;;;28.16;26.32;99880.53;5029951;28;20104;-61
2022/07/29 11:17:17;;;;;;;1.08;0.52;;;;;;;27.50;27.16;99880.53;5031037;28;20034;-59
2022/07/29 11:19:44;;;;;;;1.27;0.80;;;;;;;27.05;27.77;99885.38;5030921;28;20036;-61
2022/07/29 11:22:11;;;;;;;1.67;0.80;;;;;;;26.70;28.94;99887.91;5043814;28;20078;-60
2022/07/29 11:24:37;;;;;;;1.00;0.70;;;;;;;26.63;28.85;99871.50;5049500;28;20028;-60
2022/07/29 11:27:21;;;;;;;1.33;0.73;;;;;;;26.97;28.36;99882.94;5050619;28;20036;-60
2022/07/29 11:29:53;;;;;;;1.48;0.70;;;;;;;26.76;28.59;99882.31;5050252;28;20037;-61
2022/07/29 11:32:19;;;;;;;0.50;0.50;;;;;;;26.51;29.17;99887.91;5048501;28;20041;-57
2022/07/29 11:34:47;;;;;;;2.97;0.60;;;;;;;26.46;29.47;99883.09;5050353;28;20036;-60
2022/07/29 11:37:12;;;;;;;1.27;0.82;;;;;;;26.36;29.21;99877.28;5050786;28;20118;-64
2022/07/29 11:39:56;;;;;;;1.80;0.90;;;;;;;26.46;29.21;99885.81;5048876;28;20123;-60
2022/07/29 11:42:24;;;;;;;3.25;0.85;;;;;;;26.61;29.87;99888.19;5034638;28;20053;-68
2022/07/29 11:45:17;;;;;;;1.20;0.70;;;;;;;26.89;28.97;99892.34;5030959;28;20037;-61